Terminal Aerodrome Forecast
Issued by NWS Dodge City, KS

Home | Current Version | Previous Version | Graphics & Text | Print | Product List | Glossary Off
Versions: 1 2 3 4 5 6 7 8 9 10 11 12 13 14 15 16 17 18 19 20 21 22 23 24 25 26 27 28 29 30 31 32 33

000
FTUS43 KDDC 242335 AAA
TAFDDC
TAF AMD
KDDC 242335Z 2500/2524 15020KT 3SM TSRA BKN090CB
      TEMPO 2500/2501 VRB25G40KT 1SM TSRA BR BKN030CB
     FM250230 15019G27KT P6SM VCTS BKN200CB
     FM250600 17015G23KT P6SM SCT040 WS020/19045KT
     FM251100 19013KT P6SM SCT200=

USA.gov is the U.S. government's official web portal to all federal, state and local government web resources and services.